Time;durP1;ratioP1;P1;durP2;ratioP2;P2;SDS_P1;SDS_P2;PMS_P1;PMS_P2;Temp;Humidity;BMP_temperature;BMP_pressure;BME280_temperature;BME280_humidity;BME280_pressure;Samples;Min_cycle;Max_cycle;Signal;HPM_P1;HPM_P2
2023/04/27 00:00:35;;;;;;;10.95;4.80;;;;;;;;;;4951068;28;20047;-58
2023/04/27 00:03:04;;;;;;;6.93;4.05;;;;;;;;;;4948798;28;20038;-55
2023/04/27 00:05:30;;;;;;;7.13;4.10;;;;;;;;;;4946656;28;20640;-55
2023/04/27 00:07:56;;;;;;;11.13;4.28;;;;;;;;;;4950592;28;20110;-57
2023/04/27 00:10:21;;;;;;;7.53;3.92;;;;;;;;;;4947395;28;20037;-58
2023/04/27 00:12:46;;;;;;;8.45;4.40;;;;;;;;;;4942923;28;20046;-57
2023/04/27 00:15:12;;;;;;;12.02;4.97;;;;;;;;;;4941444;28;20726;-54
2023/04/27 00:17:37;;;;;;;8.52;5.00;;;;;;;;;;4950207;28;20603;-58
2023/04/27 00:20:04;;;;;;;9.48;4.97;;;;;;;;;;4946469;28;20022;-58
2023/04/27 00:22:29;;;;;;;9.25;5.10;;;;;;;;;;4951414;28;20394;-54
2023/04/27 00:24:55;;;;;;;6.82;5.00;;;;;;;;;;4952790;28;20487;-56
2023/04/27 00:27:20;;;;;;;8.73;4.70;;;;;;;;;;4949438;28;20038;-55
2023/04/27 00:29:45;;;;;;;7.28;3.85;;;;;;;;;;4947539;28;20022;-58
2023/04/27 00:32:11;;;;;;;6.07;3.85;;;;;;;;;;4942554;28;20048;-55
2023/04/27 00:34:36;;;;;;;7.05;4.30;;;;;;;;;;4943005;28;20453;-55
2023/04/27 00:37:02;;;;;;;7.20;4.90;;;;;;;;;;4931004;28;21337;-57
2023/04/27 00:39:27;;;;;;;8.57;5.13;;;;;;;;;;4962385;28;20503;-56
2023/04/27 00:41:52;;;;;;;8.38;5.15;;;;;;;;;;4946467;28;20042;-58
2023/04/27 00:44:23;;;;;;;11.70;5.25;;;;;;;;;;4948953;28;20031;-57
2023/04/27 00:46:48;;;;;;;8.63;5.05;;;;;;;;;;4946254;28;20038;-58
2023/04/27 00:49:13;;;;;;;9.95;5.47;;;;;;;;;;4949591;28;20031;-60
2023/04/27 00:51:39;;;;;;;9.00;4.50;;;;;;;;;;4950935;28;20031;-60
2023/04/27 00:54:05;;;;;;;9.75;4.50;;;;;;;;;;4942127;28;20035;-58
2023/04/27 00:56:30;;;;;;;6.85;4.03;;;;;;;;;;4961922;28;21815;-56
2023/04/27 00:58:56;;;;;;;6.97;3.63;;;;;;;;;;4948374;28;20374;-51
2023/04/27 01:01:22;;;;;;;5.85;3.50;;;;;;;;;;4948068;28;20094;-56
2023/04/27 01:03:49;;;;;;;7.85;3.50;;;;;;;;;;4941984;28;20096;-56
2023/04/27 01:06:14;;;;;;;5.35;3.60;;;;;;;;;;4941446;28;20027;-52
2023/04/27 01:08:43;;;;;;;5.90;3.85;;;;;;;;;;4954973;28;20122;-56
2023/04/27 01:11:08;;;;;;;7.75;3.50;;;;;;;;;;4947206;28;20119;-57
2023/04/27 01:13:33;;;;;;;6.97;3.78;;;;;;;;;;4950107;28;20066;-57
2023/04/27 01:15:59;;;;;;;8.63;3.95;;;;;;;;;;4946564;28;20389;-58
2023/04/27 01:18:25;;;;;;;6.03;3.67;;;;;;;;;;4947858;28;20026;-58
2023/04/27 01:20:50;;;;;;;6.28;4.15;;;;;;;;;;4946903;28;20033;-54
2023/04/27 01:23:15;;;;;;;7.82;4.57;;;;;;;;;;4949004;28;20181;-57
2023/04/27 01:25:41;;;;;;;9.30;4.80;;;;;;;;;;4947006;28;20101;-56
2023/04/27 01:28:06;;;;;;;8.82;4.60;;;;;;;;;;4952493;28;20027;-59
2023/04/27 01:30:31;;;;;;;7.78;4.28;;;;;;;;;;4950355;28;20039;-58
2023/04/27 01:32:57;;;;;;;6.97;4.13;;;;;;;;;;4950781;28;20039;-57
2023/04/27 01:35:22;;;;;;;10.00;4.10;;;;;;;;;;4950209;28;20031;-54
2023/04/27 01:37:49;;;;;;;6.00;3.85;;;;;;;;;;4952619;28;20062;-57
2023/04/27 01:40:16;;;;;;;8.77;4.10;;;;;;;;;;4950419;28;20054;-59
2023/04/27 01:42:41;;;;;;;5.90;3.92;;;;;;;;;;4953369;28;20039;-54
2023/04/27 01:45:07;;;;;;;7.28;3.88;;;;;;;;;;4952164;28;20035;-58
2023/04/27 01:47:33;;;;;;;7.15;3.78;;;;;;;;;;4953259;28;20062;-60
2023/04/27 01:49:58;;;;;;;6.30;4.10;;;;;;;;;;4952266;28;20150;-58
2023/04/27 01:52:23;;;;;;;7.13;3.88;;;;;;;;;;4948505;28;20102;-56
2023/04/27 01:54:49;;;;;;;6.13;4.20;;;;;;;;;;4953347;28;20442;-54
2023/04/27 01:57:14;;;;;;;10.13;5.28;;;;;;;;;;4947417;28;20035;-56
2023/04/27 01:59:40;;;;;;;10.90;4.80;;;;;;;;;;4950471;28;20385;-53
2023/04/27 02:02:05;;;;;;;6.75;4.68;;;;;;;;;;4934481;28;20035;-51
2023/04/27 02:04:30;;;;;;;9.35;5.00;;;;;;;;;;4950483;28;20492;-54
2023/04/27 02:06:56;;;;;;;7.95;4.82;;;;;;;;;;4951295;28;20046;-59
2023/04/27 02:09:21;;;;;;;6.32;4.18;;;;;;;;;;4954553;28;20046;-56
2023/04/27 02:11:47;;;;;;;6.85;5.15;;;;;;;;;;4952546;28;20038;-55
2023/04/27 02:14:13;;;;;;;8.13;4.55;;;;;;;;;;4950541;28;20027;-52
2023/04/27 02:16:38;;;;;;;8.35;4.53;;;;;;;;;;4951681;28;20711;-54
2023/04/27 02:19:03;;;;;;;9.45;4.80;;;;;;;;;;4955562;28;20751;-56
2023/04/27 02:21:29;;;;;;;7.70;4.60;;;;;;;;;;4953928;28;20134;-55
2023/04/27 02:23:54;;;;;;;7.55;4.20;;;;;;;;;;4964793;28;20051;-60
2023/04/27 02:26:21;;;;;;;6.75;4.47;;;;;;;;;;4947042;28;20039;-54
2023/04/27 02:28:49;;;;;;;7.20;4.63;;;;;;;;;;4948102;28;20034;-57
2023/04/27 02:31:14;;;;;;;9.85;5.10;;;;;;;;;;4952448;28;20027;-52
2023/04/27 02:34:04;;;;;;;8.25;4.75;;;;;;;;;;4952737;28;20034;-54
2023/04/27 02:36:50;;;;;;;8.00;4.45;;;;;;;;;;4950204;28;20063;-51
2023/04/27 02:39:38;;;;;;;7.65;4.80;;;;;;;;;;4951524;28;20100;-56
2023/04/27 02:42:22;;;;;;;7.53;4.90;;;;;;;;;;4949528;28;20055;-56
2023/04/27 02:45:07;;;;;;;7.63;4.43;;;;;;;;;;4955413;28;20774;-53
2023/04/27 02:47:51;;;;;;;7.13;4.53;;;;;;;;;;4947315;28;20054;-54
2023/04/27 02:50:41;;;;;;;8.20;5.03;;;;;;;;;;4950381;28;20097;-56
2023/04/27 02:53:27;;;;;;;9.38;4.43;;;;;;;;;;4949465;28;20049;-56
2023/04/27 02:56:11;;;;;;;9.90;4.63;;;;;;;;;;4954866;28;20042;-58
2023/04/27 02:58:55;;;;;;;8.98;4.97;;;;;;;;;;4947497;28;20106;-58
2023/04/27 03:01:39;;;;;;;5.75;4.28;;;;;;;;;;4947693;28;20046;-58
2023/04/27 03:04:23;;;;;;;6.70;4.80;;;;;;;;;;4952497;28;20102;-57
2023/04/27 03:07:07;;;;;;;9.05;4.68;;;;;;;;;;4950398;28;20131;-61
2023/04/27 03:09:51;;;;;;;11.18;5.05;;;;;;;;;;4948569;28;20536;-59
2023/04/27 03:12:42;;;;;;;10.20;4.88;;;;;;;;;;4947051;28;20101;-57
2023/04/27 03:15:26;;;;;;;8.75;4.90;;;;;;;;;;4950397;28;20058;-57
2023/04/27 03:18:10;;;;;;;7.90;4.60;;;;;;;;;;4953587;28;20110;-56
2023/04/27 03:20:40;;;;;;;7.40;5.03;;;;;;;;;;4944491;28;20089;-58
2023/04/27 03:23:05;;;;;;;9.20;4.68;;;;;;;;;;4942529;28;20047;-57
2023/04/27 03:25:31;;;;;;;7.65;5.43;;;;;;;;;;4950337;28;20046;-57
2023/04/27 03:27:56;;;;;;;12.45;5.55;;;;;;;;;;4958895;28;20028;-56
2023/04/27 03:30:21;;;;;;;8.48;5.40;;;;;;;;;;4944327;28;20066;-55
2023/04/27 03:32:47;;;;;;;8.40;5.20;;;;;;;;;;4945558;28;20041;-57
2023/04/27 03:35:12;;;;;;;8.38;5.30;;;;;;;;;;4944519;28;20119;-60
2023/04/27 03:37:37;;;;;;;7.80;5.03;;;;;;;;;;4949781;28;20039;-53
2023/04/27 03:40:06;;;;;;;8.75;5.65;;;;;;;;;;4944873;28;20027;-57
2023/04/27 03:42:31;;;;;;;10.07;5.15;;;;;;;;;;4947407;28;20058;-55
2023/04/27 03:44:57;;;;;;;8.48;5.18;;;;;;;;;;4946035;28;20330;-57
2023/04/27 03:47:22;;;;;;;9.05;5.20;;;;;;;;;;4943312;28;20500;-56
2023/04/27 03:49:48;;;;;;;12.90;6.70;;;;;;;;;;4931887;28;20031;-57
2023/04/27 03:52:13;;;;;;;11.73;7.07;;;;;;;;;;4948917;28;20481;-55
2023/04/27 03:54:38;;;;;;;12.70;6.60;;;;;;;;;;4949086;28;20031;-52
2023/04/27 03:57:04;;;;;;;12.50;6.32;;;;;;;;;;4943150;28;20034;-49
2023/04/27 03:59:29;;;;;;;13.20;6.90;;;;;;;;;;4946678;28;20027;-51
2023/04/27 04:01:56;;;;;;;10.93;6.10;;;;;;;;;;4959353;28;20035;-57
2023/04/27 04:04:22;;;;;;;10.07;5.80;;;;;;;;;;4946846;28;20127;-49
2023/04/27 04:06:47;;;;;;;8.60;5.35;;;;;;;;;;4948693;28;20041;-55
2023/04/27 04:09:12;;;;;;;8.15;5.18;;;;;;;;;;4948474;28;20031;-55
2023/04/27 04:11:38;;;;;;;10.10;5.90;;;;;;;;;;4927507;28;20125;-52
2023/04/27 04:14:05;;;;;;;8.13;5.10;;;;;;;;;;4950336;28;20043;-54
2023/04/27 04:16:32;;;;;;;8.85;5.28;;;;;;;;;;4964281;28;20035;-56
2023/04/27 04:18:57;;;;;;;10.38;5.45;;;;;;;;;;4942556;28;20038;-57
2023/04/27 04:21:23;;;;;;;8.65;6.03;;;;;;;;;;4943695;28;20055;-55
2023/04/27 04:23:48;;;;;;;14.98;5.72;;;;;;;;;;4952661;28;20031;-55
2023/04/27 04:26:14;;;;;;;16.83;5.53;;;;;;;;;;4948333;28;20034;-55
2023/04/27 04:28:39;;;;;;;10.95;6.18;;;;;;;;;;4964601;28;20034;-56
2023/04/27 04:31:05;;;;;;;12.30;7.32;;;;;;;;;;4949825;28;20551;-56
2023/04/27 04:33:30;;;;;;;10.05;5.90;;;;;;;;;;4947491;28;20031;-58
2023/04/27 04:35:57;;;;;;;11.20;5.72;;;;;;;;;;4949878;28;20054;-54
2023/04/27 04:38:22;;;;;;;8.65;5.35;;;;;;;;;;4964557;28;20035;-57
2023/04/27 04:40:50;;;;;;;10.05;5.63;;;;;;;;;;4956899;28;20386;-56
2023/04/27 04:43:15;;;;;;;9.40;5.90;;;;;;;;;;4946934;28;20038;-53
2023/04/27 04:45:41;;;;;;;9.48;5.93;;;;;;;;;;4947742;28;20042;-54
2023/04/27 04:48:07;;;;;;;11.80;5.80;;;;;;;;;;4949449;28;20031;-58
2023/04/27 04:50:33;;;;;;;10.88;5.63;;;;;;;;;;4951967;28;20035;-53
2023/04/27 04:52:58;;;;;;;10.13;5.97;;;;;;;;;;4960279;28;20448;-58
2023/04/27 04:55:25;;;;;;;8.95;5.72;;;;;;;;;;4943564;28;20039;-56
2023/04/27 04:57:51;;;;;;;9.35;6.30;;;;;;;;;;4951836;28;20098;-54
2023/04/27 05:00:16;;;;;;;13.48;6.53;;;;;;;;;;4948169;28;20035;-55
2023/04/27 05:02:42;;;;;;;12.80;6.53;;;;;;;;;;4966415;28;20047;-58
2023/04/27 05:05:08;;;;;;;10.95;6.85;;;;;;;;;;4951092;28;20082;-56
2023/04/27 05:07:33;;;;;;;7.70;5.50;;;;;;;;;;4955346;28;20444;-57
2023/04/27 05:09:58;;;;;;;9.50;6.13;;;;;;;;;;4954095;28;20102;-58
2023/04/27 05:12:24;;;;;;;8.73;5.95;;;;;;;;;;4952856;28;20055;-56
2023/04/27 05:14:52;;;;;;;12.90;6.13;;;;;;;;;;4952640;28;20049;-56
2023/04/27 05:17:18;;;;;;;10.75;6.25;;;;;;;;;;4948563;28;20031;-58
2023/04/27 05:19:43;;;;;;;10.38;6.47;;;;;;;;;;4949813;28;20085;-57
2023/04/27 05:22:09;;;;;;;9.73;6.05;;;;;;;;;;4951536;28;20494;-54
2023/04/27 05:24:34;;;;;;;9.73;6.25;;;;;;;;;;4954081;28;20035;-57
2023/04/27 05:27:00;;;;;;;9.85;6.40;;;;;;;;;;4950267;28;20110;-56
2023/04/27 05:29:26;;;;;;;9.75;6.00;;;;;;;;;;4948654;28;20471;-54
2023/04/27 05:31:51;;;;;;;14.77;6.82;;;;;;;;;;4953559;28;20038;-54
2023/04/27 05:34:19;;;;;;;9.70;6.03;;;;;;;;;;4967375;28;20034;-56
2023/04/27 05:36:47;;;;;;;8.40;5.80;;;;;;;;;;4966917;28;20939;-57
2023/04/27 05:39:13;;;;;;;12.57;6.40;;;;;;;;;;4955865;28;20042;-57
2023/04/27 05:41:38;;;;;;;9.30;5.97;;;;;;;;;;4953634;28;20039;-57
2023/04/27 05:44:04;;;;;;;8.45;5.47;;;;;;;;;;4954720;28;20042;-55
2023/04/27 05:46:29;;;;;;;10.02;5.88;;;;;;;;;;4957549;28;20035;-57
2023/04/27 05:48:57;;;;;;;10.15;6.25;;;;;;;;;;4954467;28;20122;-58
2023/04/27 05:51:23;;;;;;;11.90;6.47;;;;;;;;;;4956205;28;20113;-59
2023/04/27 05:53:48;;;;;;;13.60;7.65;;;;;;;;;;4952844;28;20039;-56
2023/04/27 05:56:14;;;;;;;15.40;8.95;;;;;;;;;;4950469;28;20440;-54
2023/04/27 05:58:39;;;;;;;16.02;9.32;;;;;;;;;;4953099;28;20033;-56
2023/04/27 06:01:05;;;;;;;12.18;7.57;;;;;;;;;;4952856;28;20477;-58
2023/04/27 06:03:31;;;;;;;17.50;9.10;;;;;;;;;;4951358;28;20058;-58
2023/04/27 06:05:57;;;;;;;13.13;7.13;;;;;;;;;;4951390;28;20031;-54
2023/04/27 06:08:22;;;;;;;11.70;6.90;;;;;;;;;;4954617;28;20632;-57
2023/04/27 06:10:49;;;;;;;9.57;6.38;;;;;;;;;;4957657;28;20118;-58
2023/04/27 06:13:15;;;;;;;12.55;6.80;;;;;;;;;;4955168;28;20042;-56
2023/04/27 06:15:40;;;;;;;8.05;5.40;;;;;;;;;;4959137;28;20038;-57
2023/04/27 06:18:05;;;;;;;11.18;5.60;;;;;;;;;;4960528;28;20065;-58
2023/04/27 06:20:31;;;;;;;10.85;6.00;;;;;;;;;;4958774;28;20028;-57
2023/04/27 06:22:56;;;;;;;14.02;6.50;;;;;;;;;;4954577;28;20503;-59
2023/04/27 06:25:22;;;;;;;11.40;6.28;;;;;;;;;;4956079;28;20041;-55
2023/04/27 06:27:47;;;;;;;9.98;5.65;;;;;;;;;;4952128;28;20035;-55
2023/04/27 06:30:13;;;;;;;15.38;5.70;;;;;;;;;;4951856;28;20056;-55
2023/04/27 06:32:38;;;;;;;12.00;6.35;;;;;;;;;;4956226;28;20058;-55
2023/04/27 06:35:03;;;;;;;15.20;6.57;;;;;;;;;;4956737;28;20023;-56
2023/04/27 06:37:29;;;;;;;13.75;6.57;;;;;;;;;;4947116;28;20035;-58
2023/04/27 06:39:55;;;;;;;12.98;5.72;;;;;;;;;;4955665;28;20090;-56
2023/04/27 06:42:20;;;;;;;16.75;6.97;;;;;;;;;;4954337;28;20396;-58
2023/04/27 06:44:46;;;;;;;17.38;6.88;;;;;;;;;;4970913;28;20042;-55
2023/04/27 06:47:12;;;;;;;16.23;6.90;;;;;;;;;;4953915;28;20085;-55
2023/04/27 06:49:37;;;;;;;17.15;7.75;;;;;;;;;;4953718;28;20119;-57
2023/04/27 06:52:02;;;;;;;14.20;6.55;;;;;;;;;;4951579;28;20037;-58
2023/04/27 06:54:28;;;;;;;14.45;6.25;;;;;;;;;;4953888;28;20027;-54
2023/04/27 06:56:53;;;;;;;9.65;5.55;;;;;;;;;;4955409;28;20054;-55
2023/04/27 06:59:19;;;;;;;13.35;5.80;;;;;;;;;;4951615;28;20098;-54
2023/04/27 07:01:45;;;;;;;11.07;5.35;;;;;;;;;;4970889;28;20465;-56
2023/04/27 07:04:10;;;;;;;11.80;5.68;;;;;;;;;;4960702;28;20086;-57
2023/04/27 07:06:36;;;;;;;12.45;5.60;;;;;;;;;;4953979;28;20039;-55
2023/04/27 07:09:01;;;;;;;8.82;4.88;;;;;;;;;;4954457;28;20428;-56
2023/04/27 07:11:27;;;;;;;10.75;5.72;;;;;;;;;;4954454;28;20035;-55
2023/04/27 07:13:52;;;;;;;9.98;4.70;;;;;;;;;;4957827;28;20789;-56
2023/04/27 07:16:18;;;;;;;10.00;4.78;;;;;;;;;;4953361;28;20422;-55
2023/04/27 07:18:43;;;;;;;15.52;4.40;;;;;;;;;;4954920;28;20058;-52
2023/04/27 07:21:08;;;;;;;10.55;4.78;;;;;;;;;;4966980;28;20082;-50
2023/04/27 07:23:33;;;;;;;9.98;4.40;;;;;;;;;;4951521;28;20126;-57
2023/04/27 07:25:59;;;;;;;9.18;4.18;;;;;;;;;;4953296;28;20468;-57
2023/04/27 07:28:24;;;;;;;6.32;4.05;;;;;;;;;;4954281;28;20432;-54
2023/04/27 07:30:50;;;;;;;12.20;4.47;;;;;;;;;;4955666;28;20497;-52
2023/04/27 07:33:15;;;;;;;10.40;4.32;;;;;;;;;;4954681;28;20037;-54
2023/04/27 07:35:41;;;;;;;7.40;4.13;;;;;;;;;;4953230;28;20055;-54
2023/04/27 07:38:07;;;;;;;8.15;4.10;;;;;;;;;;4943639;28;20066;-54
2023/04/27 07:40:33;;;;;;;7.50;4.43;;;;;;;;;;4952941;28;20035;-55
2023/04/27 07:42:58;;;;;;;8.00;4.00;;;;;;;;;;4949278;28;20509;-54
2023/04/27 07:45:30;;;;;;;8.15;3.92;;;;;;;;;;4957271;28;20128;-57
2023/04/27 07:47:56;;;;;;;7.95;3.90;;;;;;;;;;4955306;28;20128;-57
2023/04/27 07:50:24;;;;;;;9.38;4.22;;;;;;;;;;4956306;28;20154;-57
2023/04/27 07:52:49;;;;;;;10.82;4.32;;;;;;;;;;4948382;28;20047;-56
2023/04/27 07:55:15;;;;;;;7.72;3.70;;;;;;;;;;4952785;28;20034;-55
2023/04/27 07:57:40;;;;;;;8.00;4.03;;;;;;;;;;4952495;28;20046;-57
2023/04/27 08:00:08;;;;;;;8.70;3.78;;;;;;;;;;4952916;28;20031;-53
2023/04/27 08:02:38;;;;;;;10.25;4.00;;;;;;;;;;4954128;28;20078;-58
2023/04/27 08:05:03;;;;;;;5.30;3.60;;;;;;;;;;4950593;28;20568;-54
2023/04/27 08:07:28;;;;;;;7.40;3.80;;;;;;;;;;4956362;28;20109;-57
2023/04/27 08:09:57;;;;;;;9.85;4.03;;;;;;;;;;4954454;28;20031;-55
2023/04/27 08:12:22;;;;;;;10.93;3.65;;;;;;;;;;4949532;28;20133;-58
2023/04/27 08:14:47;;;;;;;8.32;3.65;;;;;;;;;;4953360;28;20035;-55
2023/04/27 08:17:13;;;;;;;13.35;4.00;;;;;;;;;;4955596;28;20035;-52
2023/04/27 08:19:39;;;;;;;6.40;3.45;;;;;;;;;;4956577;28;20507;-57
2023/04/27 08:22:04;;;;;;;8.48;3.60;;;;;;;;;;4953733;28;20043;-57
2023/04/27 08:24:30;;;;;;;9.85;3.70;;;;;;;;;;4951684;28;20985;-53
2023/04/27 08:26:55;;;;;;;9.27;3.90;;;;;;;;;;4954581;28;20149;-54
2023/04/27 08:29:21;;;;;;;7.32;3.88;;;;;;;;;;4953267;28;20118;-54
2023/04/27 08:31:46;;;;;;;9.73;3.78;;;;;;;;;;4953612;28;20031;-58
2023/04/27 08:34:12;;;;;;;9.75;3.60;;;;;;;;;;4956785;28;20090;-55
2023/04/27 08:36:37;;;;;;;9.18;3.70;;;;;;;;;;4953650;28;20460;-55
2023/04/27 08:39:06;;;;;;;7.35;3.67;;;;;;;;;;4956183;28;20023;-55
2023/04/27 08:41:32;;;;;;;6.07;3.47;;;;;;;;;;4953890;28;20572;-55
2023/04/27 08:43:57;;;;;;;6.53;3.35;;;;;;;;;;4952347;28;20106;-53
2023/04/27 08:46:25;;;;;;;9.02;3.67;;;;;;;;;;4952295;28;20039;-54
2023/04/27 08:48:51;;;;;;;7.45;3.33;;;;;;;;;;4953080;28;20105;-52
2023/04/27 08:51:17;;;;;;;10.10;3.78;;;;;;;;;;4950318;28;20031;-54
2023/04/27 08:53:47;;;;;;;9.40;3.55;;;;;;;;;;4956150;28;20027;-54
2023/04/27 08:56:12;;;;;;;8.68;3.80;;;;;;;;;;4953622;28;20081;-55
2023/04/27 08:58:38;;;;;;;7.80;3.55;;;;;;;;;;4957551;28;20481;-51
2023/04/27 09:01:06;;;;;;;7.32;3.25;;;;;;;;;;4952482;28;20031;-53
2023/04/27 09:03:33;;;;;;;6.70;3.10;;;;;;;;;;4944097;28;20411;-56
2023/04/27 09:05:59;;;;;;;8.75;3.88;;;;;;;;;;4954064;28;20035;-56
2023/04/27 09:08:24;;;;;;;7.25;3.92;;;;;;;;;;4955372;28;20041;-56
2023/04/27 09:10:49;;;;;;;6.38;3.20;;;;;;;;;;4951843;28;20031;-57
2023/04/27 09:13:15;;;;;;;8.13;3.30;;;;;;;;;;4952725;28;20050;-54
2023/04/27 09:15:42;;;;;;;7.40;3.38;;;;;;;;;;4961353;28;20039;-57
2023/04/27 09:18:11;;;;;;;7.20;3.22;;;;;;;;;;4965878;28;20146;-57
2023/04/27 09:20:41;;;;;;;6.00;2.97;;;;;;;;;;4953937;28;20815;-55
2023/04/27 09:23:06;;;;;;;8.55;3.20;;;;;;;;;;4953575;28;20051;-57
2023/04/27 09:25:32;;;;;;;7.60;3.38;;;;;;;;;;4951529;28;20039;-53
2023/04/27 09:27:58;;;;;;;7.25;3.00;;;;;;;;;;4951310;28;20038;-58
2023/04/27 09:30:24;;;;;;;7.53;3.13;;;;;;;;;;4953590;28;20031;-55
2023/04/27 09:32:54;;;;;;;5.05;2.78;;;;;;;;;;4952372;28;20113;-55
2023/04/27 09:35:21;;;;;;;6.25;3.28;;;;;;;;;;4954798;28;20050;-56
2023/04/27 09:37:47;;;;;;;8.38;3.30;;;;;;;;;;4955677;28;20027;-54
2023/04/27 09:40:12;;;;;;;6.90;3.38;;;;;;;;;;4950064;28;20035;-56
2023/04/27 09:42:38;;;;;;;7.70;3.13;;;;;;;;;;4952654;28;20081;-52
2023/04/27 09:45:03;;;;;;;7.85;3.10;;;;;;;;;;4953000;28;20592;-55
2023/04/27 09:47:29;;;;;;;8.02;3.42;;;;;;;;;;4967400;28;20109;-56
2023/04/27 09:49:54;;;;;;;6.88;2.95;;;;;;;;;;4958986;28;20085;-55
2023/04/27 09:52:20;;;;;;;9.85;3.30;;;;;;;;;;4955064;28;20481;-50
2023/04/27 09:54:45;;;;;;;7.28;3.20;;;;;;;;;;4955459;28;20197;-57
2023/04/27 09:57:10;;;;;;;7.97;3.63;;;;;;;;;;4940197;28;20046;-53
2023/04/27 09:59:42;;;;;;;6.68;3.30;;;;;;;;;;4955980;28;20039;-58
2023/04/27 10:02:10;;;;;;;6.43;3.38;;;;;;;;;;4960058;28;20043;-56
2023/04/27 10:04:35;;;;;;;8.38;3.45;;;;;;;;;;4963802;28;20061;-54
2023/04/27 10:07:05;;;;;;;8.43;3.80;;;;;;;;;;4955151;28;20023;-57
2023/04/27 10:09:35;;;;;;;6.53;3.45;;;;;;;;;;4951994;28;20031;-53
2023/04/27 10:12:14;;;;;;;6.57;3.50;;;;;;;;;;4954233;28;20046;-58
2023/04/27 10:14:58;;;;;;;7.40;3.22;;;;;;;;;;4964619;28;20619;-54
2023/04/27 10:17:31;;;;;;;7.95;3.30;;;;;;;;;;4950812;28;20041;-55
2023/04/27 10:19:56;;;;;;;9.25;3.60;;;;;;;;;;4954608;28;20492;-56
2023/04/27 10:22:22;;;;;;;7.55;3.40;;;;;;;;;;4955047;28;20051;-56
2023/04/27 10:24:48;;;;;;;6.90;3.42;;;;;;;;;;4956202;28;20476;-52
2023/04/27 10:27:17;;;;;;;7.22;3.30;;;;;;;;;;4970433;28;20063;-54
2023/04/27 10:29:43;;;;;;;9.40;3.40;;;;;;;;;;4952906;28;20019;-52
2023/04/27 10:32:13;;;;;;;8.23;3.83;;;;;;;;;;4938331;28;20038;-53
2023/04/27 10:34:38;;;;;;;6.35;3.38;;;;;;;;;;4954437;28;20087;-55
2023/04/27 10:37:05;;;;;;;6.70;3.47;;;;;;;;;;4955267;28;20692;-53
2023/04/27 10:39:33;;;;;;;7.45;3.10;;;;;;;;;;4949546;28;20066;-55
2023/04/27 10:41:58;;;;;;;6.60;3.10;;;;;;;;;;4950830;28;20063;-56
2023/04/27 10:44:24;;;;;;;6.57;2.88;;;;;;;;;;4957135;28;20066;-57
2023/04/27 10:46:50;;;;;;;8.38;3.30;;;;;;;;;;4957517;28;20071;-55
2023/04/27 10:49:16;;;;;;;7.68;2.83;;;;;;;;;;4970042;28;20057;-52
2023/04/27 10:51:41;;;;;;;9.00;3.22;;;;;;;;;;4955826;28;20039;-56
2023/04/27 10:54:07;;;;;;;6.78;3.35;;;;;;;;;;4955864;28;20037;-53
2023/04/27 10:56:32;;;;;;;7.75;3.40;;;;;;;;;;4955009;28;20098;-54
2023/04/27 10:59:02;;;;;;;7.63;3.38;;;;;;;;;;4955797;28;20035;-55
2023/04/27 11:01:28;;;;;;;9.10;3.58;;;;;;;;;;4953334;28;20039;-55
2023/04/27 11:03:57;;;;;;;6.47;2.90;;;;;;;;;;4953900;28;20081;-57
2023/04/27 11:06:23;;;;;;;6.57;2.72;;;;;;;;;;4954059;28;20071;-57
2023/04/27 11:08:48;;;;;;;6.55;2.78;;;;;;;;;;4957544;28;20046;-54
2023/04/27 11:11:13;;;;;;;10.38;2.80;;;;;;;;;;4955098;28;20056;-58
2023/04/27 11:13:41;;;;;;;8.35;3.08;;;;;;;;;;4955711;28;20041;-57
2023/04/27 11:16:07;;;;;;;7.97;3.30;;;;;;;;;;4946026;28;20031;-53
2023/04/27 11:18:35;;;;;;;7.30;3.08;;;;;;;;;;4955408;28;20042;-57
2023/04/27 11:21:11;;;;;;;9.20;2.90;;;;;;;;;;4957119;28;20027;-55
2023/04/27 11:23:37;;;;;;;5.75;2.70;;;;;;;;;;4960481;28;20054;-58
2023/04/27 11:26:16;;;;;;;8.98;2.95;;;;;;;;;;4953306;28;20088;-57
2023/04/27 11:28:55;;;;;;;7.25;2.80;;;;;;;;;;4968158;28;20093;-57
2023/04/27 11:31:21;;;;;;;7.13;2.67;;;;;;;;;;4954819;28;20043;-55
2023/04/27 11:33:47;;;;;;;4.87;2.77;;;;;;;;;;4952988;28;20030;-57
2023/04/27 11:36:16;;;;;;;5.20;2.63;;;;;;;;;;4955491;28;20746;-58
2023/04/27 11:38:42;;;;;;;8.95;2.70;;;;;;;;;;4937219;28;20126;-54
2023/04/27 11:41:07;;;;;;;7.10;2.83;;;;;;;;;;4952038;28;20114;-56
2023/04/27 11:43:33;;;;;;;6.60;3.00;;;;;;;;;;4949839;28;20039;-56
2023/04/27 11:46:02;;;;;;;6.13;2.80;;;;;;;;;;4952873;28;20069;-53
2023/04/27 11:48:27;;;;;;;7.53;2.83;;;;;;;;;;4956569;28;20039;-55
2023/04/27 11:50:55;;;;;;;8.37;2.93;;;;;;;;;;4955340;28;20039;-55
2023/04/27 11:53:31;;;;;;;6.05;2.67;;;;;;;;;;4950763;28;20034;-59
2023/04/27 11:55:58;;;;;;;5.55;2.70;;;;;;;;;;4954030;28;20041;-57
2023/04/27 11:58:23;;;;;;;7.13;3.30;;;;;;;;;;4968789;28;20118;-55
2023/04/27 12:00:48;;;;;;;7.77;3.10;;;;;;;;;;4970304;28;20126;-55
2023/04/27 12:03:14;;;;;;;9.30;3.47;;;;;;;;;;4955136;28;20066;-53
2023/04/27 12:05:51;;;;;;;7.50;3.50;;;;;;;;;;4952473;28;20491;-57
2023/04/27 12:08:17;;;;;;;11.30;3.50;;;;;;;;;;4951951;28;20134;-59
2023/04/27 12:10:43;;;;;;;7.47;3.43;;;;;;;;;;4949845;28;20174;-57
2023/04/27 12:13:08;;;;;;;5.65;3.25;;;;;;;;;;4950900;28;20035;-56
2023/04/27 12:15:33;;;;;;;10.93;3.30;;;;;;;;;;4945746;28;20035;-56
2023/04/27 12:17:59;;;;;;;12.90;2.97;;;;;;;;;;4940717;28;20081;-56
2023/04/27 12:20:24;;;;;;;8.23;2.80;;;;;;;;;;4952163;28;20113;-54
2023/04/27 12:22:50;;;;;;;9.37;3.37;;;;;;;;;;4955536;28;20055;-55
2023/04/27 12:25:16;;;;;;;7.30;3.20;;;;;;;;;;4953799;28;20035;-55
2023/04/27 12:27:41;;;;;;;5.35;2.67;;;;;;;;;;4955279;28;20126;-58
2023/04/27 12:30:07;;;;;;;8.27;3.10;;;;;;;;;;4950731;28;20114;-58
2023/04/27 12:32:32;;;;;;;6.13;2.93;;;;;;;;;;4953464;28;20034;-54
2023/04/27 12:34:57;;;;;;;9.27;3.33;;;;;;;;;;4955249;28;20063;-54
2023/04/27 12:37:23;;;;;;;7.73;3.23;;;;;;;;;;4955847;28;20110;-52
2023/04/27 12:39:48;;;;;;;5.23;3.00;;;;;;;;;;4950475;28;20114;-53
2023/04/27 12:42:13;;;;;;;7.30;3.50;;;;;;;;;;4954636;28;20043;-56
2023/04/27 12:44:40;;;;;;;9.67;3.50;;;;;;;;;;4951742;28;20560;-57
2023/04/27 12:47:05;;;;;;;7.40;3.45;;;;;;;;;;4952925;28;20106;-56
2023/04/27 12:49:30;;;;;;;7.50;3.20;;;;;;;;;;4953018;28;20043;-53
2023/04/27 12:51:56;;;;;;;7.30;3.13;;;;;;;;;;4953151;28;20607;-56
2023/04/27 12:54:22;;;;;;;10.30;3.00;;;;;;;;;;4953099;28;20074;-56
2023/04/27 12:56:47;;;;;;;9.93;3.30;;;;;;;;;;4951213;28;20081;-53
2023/04/27 12:59:12;;;;;;;8.80;3.27;;;;;;;;;;4952176;28;20035;-57
2023/04/27 13:01:38;;;;;;;8.83;3.50;;;;;;;;;;4952717;28;20031;-54
2023/04/27 13:04:05;;;;;;;9.83;2.87;;;;;;;;;;4952656;28;20037;-55
2023/04/27 13:06:31;;;;;;;6.68;3.10;;;;;;;;;;4968888;28;20393;-53
2023/04/27 13:08:56;;;;;;;9.77;3.50;;;;;;;;;;4953600;28;20499;-57
2023/04/27 13:11:22;;;;;;;10.10;3.60;;;;;;;;;;4952376;28;20033;-56
2023/04/27 13:13:47;;;;;;;7.87;3.10;;;;;;;;;;4952310;28;20038;-56
2023/04/27 13:16:13;;;;;;;8.00;3.20;;;;;;;;;;4955363;28;20042;-54
2023/04/27 13:18:39;;;;;;;8.20;3.30;;;;;;;;;;4952080;28;20094;-57
2023/04/27 13:21:05;;;;;;;10.73;3.63;;;;;;;;;;4953218;28;20373;-53
2023/04/27 13:23:31;;;;;;;5.75;2.90;;;;;;;;;;4943475;28;20054;-56
2023/04/27 13:25:56;;;;;;;11.50;2.97;;;;;;;;;;4955554;28;20448;-52
2023/04/27 13:28:21;;;;;;;5.53;3.30;;;;;;;;;;4960445;28;20634;-56
2023/04/27 13:30:50;;;;;;;4.87;2.83;;;;;;;;;;4942744;28;20476;-55
2023/04/27 13:33:15;;;;;;;10.65;3.60;;;;;;;;;;4934335;28;20448;-52
2023/04/27 13:35:41;;;;;;;10.87;3.17;;;;;;;;;;4949626;28;20036;-55
2023/04/27 13:38:09;;;;;;;9.97;3.87;;;;;;;;;;4954668;28;20031;-53
2023/04/27 13:40:34;;;;;;;12.23;3.47;;;;;;;;;;4956725;28;20564;-55
2023/04/27 13:42:59;;;;;;;8.13;4.00;;;;;;;;;;4955819;28;20082;-59
2023/04/27 13:45:25;;;;;;;9.80;3.87;;;;;;;;;;4954860;28;20023;-55
2023/04/27 13:47:51;;;;;;;7.40;3.40;;;;;;;;;;4953729;28;20559;-55
2023/04/27 13:50:16;;;;;;;7.07;3.53;;;;;;;;;;4954489;28;20027;-50
2023/04/27 13:52:41;;;;;;;8.67;3.40;;;;;;;;;;4958065;28;20035;-54
2023/04/27 13:55:07;;;;;;;12.30;3.87;;;;;;;;;;4950571;28;20054;-54
2023/04/27 13:57:33;;;;;;;8.35;4.18;;;;;;;;;;4955905;28;20037;-57
2023/04/27 14:00:01;;;;;;;6.67;3.50;;;;;;;;;;4952877;28;20032;-55
2023/04/27 14:02:27;;;;;;;8.55;3.78;;;;;;;;;;4956760;28;20039;-54
2023/04/27 14:04:52;;;;;;;8.65;3.53;;;;;;;;;;4970796;28;20374;-54
2023/04/27 14:07:18;;;;;;;7.60;3.83;;;;;;;;;;4955699;28;20489;-53
2023/04/27 14:09:43;;;;;;;9.65;3.90;;;;;;;;;;4953433;28;20480;-57
2023/04/27 14:12:09;;;;;;;12.53;4.30;;;;;;;;;;4952924;28;20038;-55
2023/04/27 14:14:34;;;;;;;8.27;3.80;;;;;;;;;;4956038;28;20035;-56
2023/04/27 14:17:00;;;;;;;10.63;4.53;;;;;;;;;;4958977;28;20415;-52
2023/04/27 14:19:26;;;;;;;7.47;3.87;;;;;;;;;;4955555;28;20519;-58
2023/04/27 14:21:51;;;;;;;7.00;4.20;;;;;;;;;;4955628;28;20047;-53
2023/04/27 14:24:17;;;;;;;7.23;4.03;;;;;;;;;;4971732;28;20059;-54
2023/04/27 14:26:43;;;;;;;8.23;3.70;;;;;;;;;;4956433;28;20110;-56
2023/04/27 14:29:11;;;;;;;10.13;3.95;;;;;;;;;;4954629;28;20038;-57
2023/04/27 14:31:36;;;;;;;9.82;4.55;;;;;;;;;;4956745;28;20047;-55
2023/04/27 14:34:02;;;;;;;12.70;4.17;;;;;;;;;;4956521;28;20030;-55
2023/04/27 14:36:27;;;;;;;9.50;4.17;;;;;;;;;;4957374;28;20753;-53
2023/04/27 14:38:53;;;;;;;7.40;4.23;;;;;;;;;;4957555;28;20378;-56